Historique des mesures à Cassis (13260), France
Quotidien Résumé Mars 8, 2017 Unités:  Métrique    US   Métrique/US
« Précédent (Jour)
Suivant (Jour) »
Quotidien Hebdomadaire Mensuel Annuel Période au choix
  Maximum: Minimum: Moyenne:
Température: TemperatureC °C 7.2 °C 12.5 °C
Point de rosée: DewpointC °C -1.0 °C 3.2 °C
Humidité: Humidity % 43 % 50 %
Vitesse du vent: 0 km/h 0 km/h 16.1 km/h
Rafales: 0 km/h - -
Vent:- - SSW
Pression: PressurehPa hPa 1015.1 hPa -
Précipitations: 0.0 mm    
Historical Graphs
 
 
Mesures pour : Mars 8, 2017
Heure Temperature Point de rosée Pression Vent Vitesse du vent Rafales Humidité Pluie (par heure) Conditions
TemperatureC °C DewpointC °C PressurehPa hPa Calm     Humidity % HourlyPrecipMM mm SoftwareType W/m2
00:11 9.4 °C -0.3 °C 1015.5 hPa WNW 29.5 km/h 54.4 km/h 51 % 0.0 mm open2300-1.11 W/m2
01:10 8.8 °C -0.1 °C 1015.1 hPa NNW 22.5 km/h 46.8 km/h 54 % 0.0 mm open2300-1.11 W/m2
02:11 8.5 °C -0.3 °C 1015.1 hPa NE 26.7 km/h 30.7 km/h 54 % 0.0 mm open2300-1.11 W/m2
03:10 8.7 °C -0.7 °C 1015.1 hPa NNE 15 km/h 15 km/h 52 % 0.0 mm open2300-1.11 W/m2
04:11 8.6 °C -0.8 °C 1015.5 hPa NW 33.2 km/h 33.2 km/h 52 % 0.0 mm open2300-1.11 W/m2
05:10 8.4 °C -0.9 °C 1016.5 hPa NW 13.2 km/h 13.2 km/h 52 % 0.0 mm open2300-1.11 W/m2
06:11 8.4 °C -0.7 °C 1016.8 hPa ENE 2.3 km/h 4.2 km/h 53 % 0.0 mm open2300-1.11 W/m2
07:10 7.2 °C -1.0 °C 1017.5 hPa NNE 4.2 km/h 8.9 km/h 56 % 0.0 mm open2300-1.11 W/m2
08:11 8.8 °C 0.4 °C 1018.2 hPa Calm     56 % 0.0 mm open2300-1.11 W/m2
09:10 10.1 °C 0.4 °C 1018.8 hPa NNE 27.7 km/h 27.7 km/h 51 % 0.0 mm open2300-1.11 W/m2
10:11 11.0 °C 0.7 °C 1019.2 hPa Calm     49 % 0.0 mm open2300-1.11 W/m2
11:10 13.2 °C 0.8 °C 1019.2 hPa NNW 16.3 km/h 16.3 km/h 43 % 0.0 mm open2300-1.11 W/m2
12:11 15.1 °C 3.2 °C 1019.2 hPa WNW 20.3 km/h 47.3 km/h 45 % 0.0 mm open2300-1.11 W/m2
13:10 15.9 °C 4.2 °C 1019.2 hPa NW 27.7 km/h 33.6 km/h 46 % 0.0 mm open2300-1.11 W/m2
14:11 17.3 °C 6.4 °C 1017.8 hPa NNE 2.3 km/h 28.5 km/h 49 % 0.0 mm open2300-1.11 W/m2
15:10 17.9 °C 7.3 °C 1018.2 hPa NW 39.4 km/h 39.4 km/h 50 % 0.0 mm open2300-1.11 W/m2
16:11 18.2 °C 7.6 °C 1017.8 hPa NNE 12.2 km/h 26.2 km/h 50 % 0.0 mm open2300-1.11 W/m2
17:10 18.0 °C 7.9 °C 1017.8 hPa West 10.9 km/h 15.6 km/h 52 % 0.0 mm open2300-1.11 W/m2
18:11 17.5 °C 7.8 °C 1017.8 hPa West 12.2 km/h 19.6 km/h 53 % 0.0 mm open2300-1.11 W/m2
19:10 16.6 °C 7.8 °C 1018.2 hPa NNW 8.9 km/h 19.2 km/h 56 % 0.0 mm open2300-1.11 W/m2
20:11 16.1 °C 7.8 °C 1018.2 hPa North 10.9 km/h 44.6 km/h 58 % 0.0 mm open2300-1.11 W/m2
21:11 16.6 °C 7.5 °C 1018.2 hPa NW 43.5 km/h 43.5 km/h 55 % 0.0 mm open2300-1.11 W/m2
22:11 16.1 °C 7.6 °C 1018.8 hPa ESE 8.9 km/h 8.9 km/h 57 % 0.0 mm open2300-1.11 W/m2
23:10 15.4 °C 7.2 °C 1018.5 hPa NNW 16.3 km/h 17.9 km/h 58 % 0.0 mm open2300-1.11 W/m2
Observations météo à CASSIS
WU-History script by Weather Underground - 1 mb